Time;durP1;ratioP1;P1;durP2;ratioP2;P2;SDS_P1;SDS_P2;PMS_P1;PMS_P2;Temp;Humidity;BMP_temperature;BMP_pressure;BME280_temperature;BME280_humidity;BME280_pressure;Samples;Min_cycle;Max_cycle;Signal;HPM_P1;HPM_P2
2023/05/14 00:01:19;;;;;;;8.73;7.20;;;12.80;99.90;;;;;;5223394;28;20211;-48
2023/05/14 00:03:50;;;;;;;9.57;7.60;;;12.90;99.90;;;;;;5214225;28;20437;-48
2023/05/14 00:06:21;;;;;;;7.17;6.20;;;12.80;99.90;;;;;;5226622;28;20571;-48
2023/05/14 00:08:51;;;;;;;11.87;7.37;;;12.80;99.90;;;;;;5226055;28;20847;-47
2023/05/14 00:11:22;;;;;;;8.13;7.10;;;12.80;99.90;;;;;;5229799;28;20214;-49
2023/05/14 00:13:53;;;;;;;7.30;6.53;;;12.90;99.90;;;;;;5225410;28;20232;-48
2023/05/14 00:16:23;;;;;;;9.77;6.70;;;12.80;99.90;;;;;;5235497;22;20999;-45
2023/05/14 00:18:54;;;;;;;7.10;6.40;;;12.90;99.90;;;;;;5220935;28;20193;-46
2023/05/14 00:21:26;;;;;;;7.90;7.10;;;12.80;99.90;;;;;;5224485;28;20297;-45
2023/05/14 00:23:57;;;;;;;10.57;7.40;;;12.80;99.90;;;;;;5207882;28;20202;-45
2023/05/14 00:26:27;;;;;;;9.87;6.80;;;12.90;99.90;;;;;;5214097;28;20471;-45
2023/05/14 00:28:58;;;;;;;9.60;7.40;;;12.80;99.90;;;;;;5201033;28;20578;-45
2023/05/14 00:31:28;;;;;;;8.00;6.27;;;12.90;99.90;;;;;;5205507;28;20554;-45
2023/05/14 00:33:59;;;;;;;7.30;6.70;;;12.90;99.90;;;;;;5204869;28;20187;-44
2023/05/14 00:36:30;;;;;;;8.20;7.33;;;12.90;99.90;;;;;;5205263;28;20227;-44
2023/05/14 00:39:01;;;;;;;9.33;7.00;;;12.90;99.90;;;;;;5203384;28;20195;-45
2023/05/14 00:41:31;;;;;;;8.10;7.10;;;12.90;99.90;;;;;;5203786;28;20554;-45
2023/05/14 00:44:03;;;;;;;8.27;7.43;;;12.90;99.90;;;;;;5188384;28;20175;-46
2023/05/14 00:46:33;;;;;;;8.37;7.17;;;12.90;99.90;;;;;;5204627;28;20726;-44
2023/05/14 00:49:04;;;;;;;8.37;7.50;;;12.80;99.90;;;;;;5204498;28;20529;-44
2023/05/14 00:51:34;;;;;;;11.00;7.20;;;12.80;99.90;;;;;;5205959;28;20267;-45
2023/05/14 00:54:06;;;;;;;10.37;6.87;;;12.80;99.90;;;;;;5220836;28;20179;-46
2023/05/14 00:56:36;;;;;;;7.43;6.73;;;12.80;99.90;;;;;;5200579;28;20203;-45
2023/05/14 00:59:07;;;;;;;9.37;6.47;;;12.70;99.90;;;;;;5205968;28;20477;-44
2023/05/14 01:01:38;;;;;;;7.73;5.80;;;12.70;99.90;;;;;;5206890;28;20238;-45
2023/05/14 01:04:10;;;;;;;13.73;6.10;;;12.70;99.90;;;;;;5206469;28;20561;-45
2023/05/14 01:07:05;;;;;;;6.97;6.40;;;12.60;99.90;;;;;;5206692;28;20458;-45
2023/05/14 01:09:48;;;;;;;7.60;6.90;;;12.60;99.90;;;;;;5205552;28;20990;-45
2023/05/14 01:12:35;;;;;;;9.10;6.80;;;12.60;99.90;;;;;;5208250;28;20438;-45
2023/05/14 01:15:23;;;;;;;6.60;6.00;;;12.50;99.90;;;;;;5204443;28;20422;-46
2023/05/14 01:18:00;;;;;;;7.83;6.37;;;12.50;99.90;;;;;;5201224;28;20501;-46
2023/05/14 01:20:31;;;;;;;5.97;5.33;;;12.40;99.90;;;;;;5201012;28;20506;-45
2023/05/14 01:23:02;;;;;;;8.57;5.07;;;12.40;99.90;;;;;;5198093;28;20513;-47
2023/05/14 01:25:33;;;;;;;8.33;5.93;;;12.40;99.90;;;;;;5200219;28;20310;-44
2023/05/14 01:28:17;;;;;;;9.20;6.37;;;12.40;99.90;;;;;;5203042;28;20834;-46
2023/05/14 01:31:00;;;;;;;12.67;6.03;;;12.40;99.90;;;;;;5206759;28;20181;-45
2023/05/14 01:33:34;;;;;;;5.67;5.17;;;12.30;99.90;;;;;;5203919;28;20434;-44
2023/05/14 01:36:05;;;;;;;6.20;5.60;;;12.40;99.90;;;;;;5199961;28;20525;-45
2023/05/14 01:38:37;;;;;;;5.83;5.43;;;12.30;99.90;;;;;;5201238;28;20982;-45
2023/05/14 01:41:08;;;;;;;5.87;5.33;;;12.30;99.90;;;;;;5201665;28;20737;-44
2023/05/14 01:43:39;;;;;;;6.03;5.43;;;12.30;99.90;;;;;;5202415;28;21601;-45
2023/05/14 01:46:10;;;;;;;4.93;4.43;;;12.30;99.90;;;;;;5199819;28;20219;-46
2023/05/14 01:48:40;;;;;;;4.87;4.40;;;12.30;99.90;;;;;;5200094;28;20430;-46
2023/05/14 01:51:13;;;;;;;6.33;4.57;;;12.30;99.90;;;;;;5211347;28;20226;-45
2023/05/14 01:53:44;;;;;;;5.50;5.00;;;12.30;99.90;;;;;;5196570;28;20207;-45
2023/05/14 01:56:14;;;;;;;11.07;5.03;;;12.30;99.90;;;;;;5199888;28;20468;-45
2023/05/14 01:58:45;;;;;;;5.07;4.67;;;12.30;99.90;;;;;;5199554;28;20184;-47
2023/05/14 02:01:16;;;;;;;15.63;5.77;;;12.30;99.90;;;;;;5200796;28;20241;-45
2023/05/14 02:03:46;;;;;;;10.20;6.30;;;12.30;99.90;;;;;;5196126;28;20575;-45
2023/05/14 02:06:17;;;;;;;5.63;5.10;;;12.30;99.90;;;;;;5203200;28;20200;-46
2023/05/14 02:08:47;;;;;;;6.03;4.70;;;12.30;99.90;;;;;;5201780;28;20651;-46
2023/05/14 02:11:18;;;;;;;7.37;5.80;;;12.30;99.90;;;;;;5200240;28;20175;-45
2023/05/14 02:13:49;;;;;;;5.60;5.10;;;12.30;99.90;;;;;;5196560;28;20187;-47
2023/05/14 02:16:19;;;;;;;7.10;6.20;;;12.30;99.90;;;;;;5203697;28;20338;-46
2023/05/14 02:18:50;;;;;;;6.70;5.03;;;12.30;99.90;;;;;;5202495;28;20183;-46
2023/05/14 02:21:20;;;;;;;5.50;5.03;;;12.30;99.90;;;;;;5205134;28;20776;-45
2023/05/14 02:23:51;;;;;;;7.87;6.43;;;12.30;99.90;;;;;;5202501;28;20190;-45
2023/05/14 02:26:22;;;;;;;9.10;5.40;;;12.40;99.90;;;;;;5200537;28;20261;-46
2023/05/14 02:28:52;;;;;;;5.57;4.87;;;12.40;99.90;;;;;;5202068;28;20210;-45
2023/05/14 02:31:23;;;;;;;5.83;4.90;;;12.40;99.90;;;;;;5199830;28;20254;-46
2023/05/14 02:33:54;;;;;;;6.50;5.90;;;12.40;99.90;;;;;;5201765;28;20235;-46
2023/05/14 02:36:24;;;;;;;5.93;4.90;;;12.40;99.90;;;;;;5203781;28;20247;-47
2023/05/14 02:39:03;;;;;;;5.43;4.93;;;12.40;99.90;;;;;;5205819;28;20175;-46
2023/05/14 02:41:34;;;;;;;6.70;5.50;;;12.40;99.90;;;;;;5205653;28;20207;-46
2023/05/14 02:44:04;;;;;;;8.60;4.60;;;12.40;99.90;;;;;;5210488;28;20436;-46
2023/05/14 02:46:35;;;;;;;5.80;5.30;;;12.40;99.90;;;;;;5205635;28;20671;-46
2023/05/14 02:49:05;;;;;;;6.43;5.70;;;12.50;99.90;;;;;;5204386;28;20196;-46
2023/05/14 02:51:36;;;;;;;6.57;5.30;;;12.50;99.90;;;;;;5205577;28;20214;-45
2023/05/14 02:54:07;;;;;;;6.53;4.80;;;12.50;99.90;;;;;;5206707;28;20180;-46
2023/05/14 02:56:37;;;;;;;7.90;4.40;;;12.50;99.90;;;;;;5206938;28;20584;-46
2023/05/14 02:59:08;;;;;;;10.03;4.67;;;12.50;99.90;;;;;;5204827;28;20230;-46
2023/05/14 03:01:38;;;;;;;5.63;5.07;;;12.60;99.90;;;;;;5204088;28;20204;-45
2023/05/14 03:04:09;;;;;;;6.23;5.17;;;12.60;99.90;;;;;;5205929;28;20210;-46
2023/05/14 03:06:40;;;;;;;5.43;4.93;;;12.60;99.60;;;;;;5204848;28;20204;-46
2023/05/14 03:09:10;;;;;;;4.53;4.23;;;12.60;99.40;;;;;;5208017;28;20672;-45
2023/05/14 03:11:41;;;;;;;4.60;4.30;;;12.60;99.10;;;;;;5205643;28;20562;-46
2023/05/14 03:14:11;;;;;;;5.90;4.87;;;12.70;98.90;;;;;;5208430;28;20187;-46
2023/05/14 03:16:42;;;;;;;6.40;4.80;;;12.70;98.50;;;;;;5201230;28;20215;-46
2023/05/14 03:19:13;;;;;;;5.70;5.20;;;12.70;98.30;;;;;;5205986;28;20186;-46
2023/05/14 03:21:43;;;;;;;5.23;4.73;;;12.70;97.70;;;;;;5204657;28;20793;-45
2023/05/14 03:24:14;;;;;;;7.50;4.77;;;12.70;97.70;;;;;;5205927;28;20182;-46
2023/05/14 03:26:44;;;;;;;5.90;5.27;;;12.80;97.50;;;;;;5207121;28;20222;-45
2023/05/14 03:29:16;;;;;;;5.50;5.00;;;12.80;97.20;;;;;;5203424;28;20187;-45
2023/05/14 03:31:48;;;;;;;8.23;4.70;;;12.80;96.80;;;;;;5204135;28;20207;-47
2023/05/14 03:34:19;;;;;;;5.10;4.30;;;12.80;96.40;;;;;;5205940;28;20445;-46
2023/05/14 03:36:50;;;;;;;8.03;5.37;;;12.80;96.00;;;;;;5206571;28;20443;-46
2023/05/14 03:39:20;;;;;;;6.53;4.73;;;12.80;95.80;;;;;;5206822;28;20215;-47
2023/05/14 03:41:51;;;;;;;6.07;5.47;;;12.90;95.80;;;;;;5206479;28;20299;-46
2023/05/14 03:44:22;;;;;;;4.67;4.30;;;12.90;95.70;;;;;;5206979;28;20321;-46
2023/05/14 03:46:52;;;;;;;4.30;3.97;;;12.90;95.40;;;;;;5201743;28;20192;-46
2023/05/14 03:49:23;;;;;;;10.03;4.90;;;12.90;95.20;;;;;;5206904;28;20183;-46
2023/05/14 03:51:53;;;;;;;4.77;4.37;;;13.00;95.00;;;;;;5204543;28;20664;-46
2023/05/14 03:54:25;;;;;;;4.97;4.30;;;13.00;94.50;;;;;;5202768;28;20234;-46
2023/05/14 03:56:55;;;;;;;9.57;5.40;;;13.00;94.30;;;;;;5190403;28;20227;-45
2023/05/14 03:59:26;;;;;;;6.73;4.90;;;13.00;93.90;;;;;;5203190;28;20478;-46
2023/05/14 04:01:57;;;;;;;4.43;4.03;;;13.10;93.60;;;;;;5205625;28;20302;-45
2023/05/14 04:04:28;;;;;;;6.80;4.60;;;13.10;93.20;;;;;;5205379;28;20529;-46
2023/05/14 04:06:58;;;;;;;4.60;4.20;;;13.20;92.80;;;;;;5200732;28;20274;-45
2023/05/14 04:09:29;;;;;;;7.70;4.50;;;13.20;92.40;;;;;;5200821;28;20187;-46
2023/05/14 04:12:00;;;;;;;8.27;4.87;;;13.30;92.00;;;;;;5204688;28;20187;-46
2023/05/14 04:14:30;;;;;;;7.60;5.20;;;13.30;91.60;;;;;;5205642;28;20184;-46
2023/05/14 04:17:01;;;;;;;4.20;3.90;;;13.40;91.30;;;;;;5200669;28;20211;-51
2023/05/14 04:19:31;;;;;;;5.03;4.50;;;13.40;90.80;;;;;;5199867;28;20239;-46
2023/05/14 04:22:02;;;;;;;5.77;4.70;;;13.40;90.70;;;;;;5201003;28;20246;-46
2023/05/14 04:24:33;;;;;;;9.60;4.73;;;13.50;90.20;;;;;;5218268;28;20545;-46
2023/05/14 04:27:05;;;;;;;4.97;4.37;;;13.50;90.00;;;;;;5201354;28;20454;-47
2023/05/14 04:29:35;;;;;;;5.70;5.07;;;13.60;89.70;;;;;;5199421;28;20190;-45
2023/05/14 04:32:06;;;;;;;4.40;4.10;;;13.60;89.20;;;;;;5201214;28;20430;-45
2023/05/14 04:34:37;;;;;;;4.83;4.27;;;13.50;88.20;;;;;;5203452;28;20194;-46
2023/05/14 04:37:07;;;;;;;4.13;3.73;;;13.50;88.70;;;;;;5200035;28;20208;-46
2023/05/14 04:39:38;;;;;;;9.67;5.10;;;13.50;88.60;;;;;;5200916;28;20234;-47
2023/05/14 04:42:09;;;;;;;7.83;5.40;;;13.50;88.20;;;;;;5199691;28;20217;-46
2023/05/14 04:44:40;;;;;;;13.30;4.70;;;13.50;88.00;;;;;;5201293;28;20184;-46
2023/05/14 04:47:11;;;;;;;9.30;4.20;;;13.50;88.30;;;;;;5203448;28;21231;-46
2023/05/14 04:49:42;;;;;;;7.33;4.57;;;13.50;88.60;;;;;;5200588;28;20210;-46
2023/05/14 04:52:12;;;;;;;4.33;4.00;;;14.70;88.40;;;;;;5200722;28;20438;-46
2023/05/14 04:54:43;;;;;;;12.53;3.67;;;16.80;75.30;;;;;;5202421;28;20183;-46
2023/05/14 04:57:14;;;;;;;5.87;4.70;;;18.90;61.40;;;;;;5200408;28;20283;-46
2023/05/14 04:59:44;;;;;;;10.43;5.40;;;20.60;52.90;;;;;;5202291;28;20255;-45
2023/05/14 05:02:15;;;;;;;4.73;4.33;;;22.00;48.10;;;;;;5203131;28;20204;-45
2023/05/14 05:04:46;;;;;;;10.17;4.67;;;23.20;43.50;;;;;;5200355;28;20187;-46
2023/05/14 05:07:16;;;;;;;15.20;4.10;;;24.30;41.60;;;;;;5203209;28;20255;-45
2023/05/14 05:09:47;;;;;;;4.90;4.40;;;25.30;38.70;;;;;;5202177;28;20176;-44
2023/05/14 05:12:17;;;;;;;6.47;4.40;;;26.30;37.10;;;;;;5202602;28;20552;-46
2023/05/14 05:14:48;;;;;;;4.73;4.40;;;26.90;35.50;;;;;;5201370;28;20187;-45
2023/05/14 05:17:19;;;;;;;4.27;3.80;;;26.80;33.90;;;;;;5202549;28;20246;-46
2023/05/14 05:19:49;;;;;;;5.30;3.97;;;24.50;35.10;;;;;;5200565;28;20190;-45
2023/05/14 05:22:20;;;;;;;6.67;4.20;;;22.00;38.70;;;;;;5202883;28;20212;-47
2023/05/14 05:24:50;;;;;;;12.40;3.63;;;20.10;42.00;;;;;;5201902;28;20208;-45
2023/05/14 05:27:21;;;;;;;8.10;4.30;;;18.90;43.60;;;;;;5202086;28;20234;-46
2023/05/14 05:29:52;;;;;;;7.40;4.07;;;18.20;45.70;;;;;;5199100;28;20180;-46
2023/05/14 05:32:22;;;;;;;9.73;4.40;;;17.90;46.30;;;;;;5203533;28;20652;-46
2023/05/14 05:34:53;;;;;;;5.10;3.67;;;17.80;46.10;;;;;;5203876;28;20175;-45
2023/05/14 05:37:24;;;;;;;6.07;4.30;;;18.40;46.50;;;;;;5201887;28;20265;-45
2023/05/14 05:39:54;;;;;;;13.40;3.60;;;19.40;43.50;;;;;;5202783;28;20198;-46
2023/05/14 05:42:25;;;;;;;10.17;3.60;;;19.00;43.20;;;;;;5202139;28;20215;-45
2023/05/14 05:44:56;;;;;;;4.77;4.37;;;18.40;44.00;;;;;;5215588;28;20712;-45
2023/05/14 05:47:26;;;;;;;3.90;3.43;;;17.90;44.70;;;;;;5203520;28;20262;-46
2023/05/14 05:49:57;;;;;;;4.83;3.50;;;17.60;45.90;;;;;;5204620;28;20176;-45
2023/05/14 05:52:27;;;;;;;6.07;3.70;;;17.30;45.80;;;;;;5201290;28;20218;-45
2023/05/14 05:54:58;;;;;;;4.37;4.07;;;17.30;46.40;;;;;;5201082;28;20211;-45
2023/05/14 05:57:29;;;;;;;7.90;3.80;;;17.30;46.00;;;;;;5202991;28;20284;-44
2023/05/14 05:59:59;;;;;;;7.10;3.30;;;17.60;45.90;;;;;;5199875;28;20176;-46
2023/05/14 06:02:30;;;;;;;3.80;3.50;;;17.70;45.30;;;;;;5193499;28;20208;-45
2023/05/14 06:05:01;;;;;;;4.13;3.67;;;17.60;45.50;;;;;;5203569;28;20187;-46
2023/05/14 06:07:31;;;;;;;4.60;3.80;;;18.00;45.40;;;;;;5200234;28;20211;-45
2023/05/14 06:10:02;;;;;;;3.70;3.37;;;18.30;45.00;;;;;;5205787;28;20628;-45
2023/05/14 06:12:33;;;;;;;3.67;3.37;;;19.10;44.10;;;;;;5203967;28;20565;-47
2023/05/14 06:15:04;;;;;;;8.77;4.00;;;19.70;43.20;;;;;;5208868;28;20438;-45
2023/05/14 06:17:35;;;;;;;7.60;3.43;;;19.80;42.00;;;;;;5208255;28;20880;-45
2023/05/14 06:20:06;;;;;;;19.67;4.60;;;20.10;42.10;;;;;;5208100;28;20801;-45
2023/05/14 06:22:37;;;;;;;13.50;4.20;;;20.90;41.70;;;;;;5208508;28;20184;-45
2023/05/14 06:25:08;;;;;;;7.80;4.23;;;21.40;40.20;;;;;;5207584;28;20441;-45
2023/05/14 06:27:39;;;;;;;8.43;4.03;;;20.90;40.40;;;;;;5207831;28;20187;-46
2023/05/14 06:30:10;;;;;;;4.00;3.60;;;20.00;40.90;;;;;;5209653;28;20442;-45
2023/05/14 06:32:41;;;;;;;8.30;3.20;;;19.00;42.60;;;;;;5208272;28;20183;-44
2023/05/14 06:35:11;;;;;;;7.60;5.10;;;18.30;43.80;;;;;;5208421;28;21003;-46
2023/05/14 06:37:42;;;;;;;6.33;3.90;;;17.90;45.20;;;;;;5213386;28;20291;-46
2023/05/14 06:40:14;;;;;;;4.20;3.20;;;17.60;45.70;;;;;;5209043;28;20267;-44
2023/05/14 06:42:45;;;;;;;7.20;3.80;;;17.40;46.00;;;;;;5209519;28;20180;-45
2023/05/14 06:45:15;;;;;;;8.03;4.20;;;17.40;46.40;;;;;;5211568;28;20435;-45
2023/05/14 06:47:46;;;;;;;6.87;3.33;;;17.30;46.40;;;;;;5208957;28;20188;-44
2023/05/14 06:50:17;;;;;;;4.80;3.87;;;17.30;46.30;;;;;;5208694;28;20186;-45
2023/05/14 06:52:47;;;;;;;5.37;3.93;;;17.20;46.70;;;;;;5208651;28;20643;-46
2023/05/14 06:55:18;;;;;;;5.23;3.50;;;17.20;46.90;;;;;;5208296;28;20180;-45
2023/05/14 06:57:49;;;;;;;4.93;3.80;;;17.30;47.10;;;;;;5210512;28;20259;-46
2023/05/14 07:00:20;;;;;;;4.23;3.73;;;17.40;47.20;;;;;;5191594;28;20172;-46
2023/05/14 07:02:51;;;;;;;7.67;3.23;;;17.30;47.00;;;;;;5206432;28;20426;-46
2023/05/14 07:05:21;;;;;;;3.67;3.30;;;17.30;47.20;;;;;;5206111;28;20435;-45
2023/05/14 07:07:52;;;;;;;5.30;3.10;;;17.40;47.40;;;;;;5205107;28;20699;-46
2023/05/14 07:10:23;;;;;;;2.87;2.77;;;17.50;47.20;;;;;;5208042;28;20207;-47
2023/05/14 07:12:54;;;;;;;3.53;3.20;;;17.60;46.90;;;;;;5208979;28;20179;-46
2023/05/14 07:15:25;;;;;;;8.47;2.77;;;17.70;46.60;;;;;;5204821;28;20821;-45
2023/05/14 07:17:55;;;;;;;4.43;3.93;;;17.60;46.40;;;;;;5205441;28;20213;-45
2023/05/14 07:20:26;;;;;;;6.57;3.77;;;17.70;46.60;;;;;;5209551;28;20211;-45
2023/05/14 07:22:56;;;;;;;3.30;3.00;;;17.70;46.40;;;;;;5205910;28;20183;-45
2023/05/14 07:25:27;;;;;;;3.20;2.90;;;17.70;46.70;;;;;;5206287;28;20705;-44
2023/05/14 07:27:58;;;;;;;3.13;2.67;;;17.70;47.00;;;;;;5208497;28;20180;-45
2023/05/14 07:30:28;;;;;;;4.07;3.03;;;17.80;47.10;;;;;;5207799;28;20509;-46
2023/05/14 07:32:59;;;;;;;3.23;3.10;;;18.00;47.10;;;;;;5205901;28;20243;-45
2023/05/14 07:35:30;;;;;;;6.37;3.17;;;18.10;46.60;;;;;;5204537;28;20264;-45
2023/05/14 07:38:00;;;;;;;5.30;3.40;;;18.40;46.40;;;;;;5203545;28;20258;-46
2023/05/14 07:40:31;;;;;;;11.17;2.93;;;18.40;45.70;;;;;;5207545;28;20738;-47
2023/05/14 07:43:02;;;;;;;4.10;2.40;;;18.60;45.80;;;;;;5187788;28;20654;-48
2023/05/14 07:45:32;;;;;;;7.43;2.90;;;18.80;45.20;;;;;;5206940;28;20191;-44
2023/05/14 07:48:03;;;;;;;2.90;2.73;;;19.20;44.80;;;;;;5205829;28;20241;-45
2023/05/14 07:50:34;;;;;;;2.80;2.60;;;19.50;44.80;;;;;;5204385;28;20301;-47
2023/05/14 07:53:04;;;;;;;3.43;3.23;;;19.60;44.70;;;;;;5209643;28;20179;-45
2023/05/14 07:55:35;;;;;;;5.23;2.93;;;19.90;43.30;;;;;;5211738;28;20269;-44
2023/05/14 07:58:06;;;;;;;6.73;3.13;;;20.10;43.30;;;;;;5205491;28;20666;-45
2023/05/14 08:00:37;;;;;;;3.93;2.77;;;20.90;43.60;;;;;;5204083;28;20745;-46
2023/05/14 08:03:07;;;;;;;3.80;2.90;;;21.70;41.00;;;;;;5204597;28;20175;-44
2023/05/14 08:05:39;;;;;;;11.60;2.93;;;21.60;40.40;;;;;;5206009;28;20246;-44
2023/05/14 08:08:11;;;;;;;2.77;2.60;;;21.20;40.70;;;;;;5203801;28;20266;-45
2023/05/14 08:10:42;;;;;;;3.87;3.03;;;21.10;40.90;;;;;;5204667;28;20542;-45
2023/05/14 08:13:12;;;;;;;2.80;2.70;;;21.10;41.00;;;;;;5205950;28;20414;-46
2023/05/14 08:15:43;;;;;;;3.27;3.00;;;21.10;41.50;;;;;;5206311;28;20544;-46
2023/05/14 08:18:13;;;;;;;4.70;2.90;;;21.00;40.50;;;;;;5205789;28;20188;-45
2023/05/14 08:20:44;;;;;;;3.87;2.80;;;20.90;41.10;;;;;;5204575;28;20299;-46
2023/05/14 08:23:15;;;;;;;4.53;2.80;;;20.70;41.10;;;;;;5205347;28;20259;-46
2023/05/14 08:25:45;;;;;;;6.47;2.77;;;20.50;41.90;;;;;;5206483;28;20199;-46
2023/05/14 08:28:16;;;;;;;2.47;2.27;;;20.40;42.10;;;;;;5206523;28;20183;-46
2023/05/14 08:30:47;;;;;;;5.40;3.47;;;20.50;42.40;;;;;;5223346;28;20194;-45
2023/05/14 08:33:17;;;;;;;3.70;3.03;;;20.50;42.10;;;;;;5204216;28;20184;-45
2023/05/14 08:35:51;;;;;;;3.07;2.97;;;20.50;42.80;;;;;;5203829;28;20710;-45
2023/05/14 08:38:22;;;;;;;3.33;2.83;;;20.60;42.00;;;;;;5220159;28;20201;-45
2023/05/14 08:40:57;;;;;;;3.23;2.73;;;20.60;41.30;;;;;;5205264;28;20462;-45
2023/05/14 08:43:44;;;;;;;12.77;3.67;;;20.90;41.80;;;;;;5205858;28;20187;-45
2023/05/14 08:46:16;;;;;;;6.23;2.70;;;21.30;41.60;;;;;;5205413;28;20445;-47
2023/05/14 08:48:53;;;;;;;3.20;2.93;;;21.90;40.80;;;;;;5204302;28;20906;-45
2023/05/14 08:51:25;;;;;;;5.50;2.67;;;22.40;39.60;;;;;;5203061;28;20438;-45
2023/05/14 08:54:01;;;;;;;9.90;3.17;;;22.50;39.00;;;;;;5203867;28;21052;-46
2023/05/14 08:56:32;;;;;;;4.10;3.10;;;22.30;39.00;;;;;;5199256;28;20572;-48
2023/05/14 08:59:03;;;;;;;3.27;3.07;;;22.10;39.40;;;;;;5205691;28;20544;-46
2023/05/14 09:01:36;;;;;;;3.23;2.93;;;22.00;39.30;;;;;;5205429;28;20545;-45
2023/05/14 09:04:08;;;;;;;3.23;2.63;;;22.00;39.00;;;;;;5204402;28;20438;-46
2023/05/14 09:06:40;;;;;;;4.10;2.80;;;21.80;39.40;;;;;;5189510;28;20465;-46
2023/05/14 09:09:11;;;;;;;4.93;3.30;;;22.20;39.60;;;;;;5203360;28;20449;-45
2023/05/14 09:11:45;;;;;;;2.97;2.87;;;22.50;39.00;;;;;;5203773;28;20787;-46
2023/05/14 09:14:16;;;;;;;3.00;2.80;;;22.80;38.50;;;;;;5203804;28;20443;-46
2023/05/14 09:16:47;;;;;;;2.80;2.60;;;22.80;37.70;;;;;;5204547;28;20626;-47
2023/05/14 09:19:19;;;;;;;6.80;2.57;;;22.60;38.20;;;;;;5204606;28;20635;-46
2023/05/14 09:21:50;;;;;;;9.70;3.50;;;22.20;37.50;;;;;;5208866;28;20465;-47
2023/05/14 09:24:22;;;;;;;3.70;3.00;;;21.90;37.70;;;;;;5201070;28;20445;-46
2023/05/14 09:26:56;;;;;;;2.87;2.67;;;21.70;39.00;;;;;;5203905;28;20191;-46
2023/05/14 09:29:28;;;;;;;3.97;2.83;;;21.90;38.40;;;;;;5197812;28;20532;-46
2023/05/14 09:32:03;;;;;;;3.67;2.70;;;22.00;38.10;;;;;;5202173;28;20422;-51
2023/05/14 09:34:37;;;;;;;3.90;2.23;;;21.80;38.10;;;;;;5200046;28;20415;-46
2023/05/14 09:37:08;;;;;;;2.07;1.97;;;21.50;38.40;;;;;;5200498;28;20563;-45
2023/05/14 09:39:39;;;;;;;5.90;2.03;;;21.30;38.30;;;;;;5205303;28;20953;-46
2023/05/14 09:42:10;;;;;;;3.00;2.60;;;21.10;38.40;;;;;;5199901;28;20461;-46
2023/05/14 09:44:40;;;;;;;5.23;2.60;;;21.00;38.50;;;;;;5201066;28;20191;-47
2023/05/14 09:47:11;;;;;;;2.47;2.37;;;20.80;39.20;;;;;;5202198;28;20231;-49
2023/05/14 09:49:42;;;;;;;2.37;2.20;;;20.60;38.70;;;;;;5201788;28;20207;-46
2023/05/14 09:52:12;;;;;;;6.20;2.50;;;20.70;38.70;;;;;;5200384;28;20232;-46
2023/05/14 09:54:43;;;;;;;8.13;2.90;;;20.60;38.70;;;;;;5203669;28;20574;-46
2023/05/14 09:57:14;;;;;;;6.40;2.67;;;20.60;39.30;;;;;;5194904;28;20218;-47
2023/05/14 09:59:45;;;;;;;7.83;2.53;;;20.80;39.20;;;;;;5201479;28;20438;-47
2023/05/14 10:02:21;;;;;;;2.80;2.37;;;20.80;39.50;;;;;;5201183;28;20231;-47
2023/05/14 10:04:53;;;;;;;4.60;2.13;;;20.80;38.60;;;;;;5197074;28;20175;-47
2023/05/14 10:07:37;;;;;;;6.67;2.40;;;20.90;39.20;;;;;;5202813;28;20462;-47
2023/05/14 10:10:12;;;;;;;3.77;3.10;;;21.00;39.10;;;;;;5197809;28;20434;-48
2023/05/14 10:12:49;;;;;;;5.63;2.17;;;21.00;39.70;;;;;;5201923;28;20433;-46
2023/05/14 10:15:28;;;;;;;4.70;2.40;;;21.00;39.30;;;;;;5213272;28;20441;-49
2023/05/14 10:18:05;;;;;;;3.77;2.60;;;21.10;39.70;;;;;;5200128;28;20438;-48
2023/05/14 10:20:38;;;;;;;4.87;3.20;;;21.20;39.70;;;;;;5197640;28;20463;-48
2023/05/14 10:23:08;;;;;;;3.53;3.23;;;21.10;39.80;;;;;;5184716;28;20433;-46
2023/05/14 10:25:39;;;;;;;3.17;2.97;;;21.00;39.50;;;;;;5206949;28;20442;-45
2023/05/14 10:28:10;;;;;;;2.57;2.37;;;21.00;39.90;;;;;;5200092;28;20302;-46
2023/05/14 10:30:48;;;;;;;2.97;2.67;;;20.90;39.60;;;;;;5201473;28;20283;-46
2023/05/14 10:33:19;;;;;;;3.50;2.60;;;21.00;40.40;;;;;;5202098;28;20607;-46
2023/05/14 10:35:56;;;;;;;3.13;2.83;;;21.20;39.80;;;;;;5200331;28;20458;-48
2023/05/14 10:38:35;;;;;;;3.00;2.80;;;21.30;39.30;;;;;;5205297;28;20184;-47
2023/05/14 10:41:10;;;;;;;2.87;2.67;;;21.30;38.50;;;;;;5201218;28;20581;-48
2023/05/14 10:43:41;;;;;;;8.27;3.03;;;21.10;38.50;;;;;;5200244;28;20429;-47
2023/05/14 10:46:13;;;;;;;4.33;2.90;;;20.90;39.30;;;;;;5201757;28;20954;-48
2023/05/14 10:48:44;;;;;;;3.80;3.43;;;20.80;39.00;;;;;;5195773;28;20262;-47
2023/05/14 10:51:16;;;;;;;4.07;2.90;;;20.70;38.70;;;;;;5217986;28;20530;-47
2023/05/14 10:53:47;;;;;;;4.20;3.13;;;20.60;38.70;;;;;;5201201;28;20968;-46
2023/05/14 10:56:18;;;;;;;11.63;3.43;;;20.60;39.00;;;;;;5198695;28;20438;-46
2023/05/14 10:58:49;;;;;;;3.60;2.70;;;20.60;38.50;;;;;;5199508;28;20283;-45
2023/05/14 11:01:23;;;;;;;5.13;3.33;;;20.70;38.90;;;;;;5205341;28;20465;-49
2023/05/14 11:03:57;;;;;;;3.27;3.07;;;20.80;38.80;;;;;;5200832;28;20520;-45
2023/05/14 11:06:28;;;;;;;3.10;2.80;;;20.70;38.70;;;;;;5203655;28;20464;-46
2023/05/14 11:09:00;;;;;;;5.03;3.10;;;20.50;39.30;;;;;;5204926;28;20958;-46
2023/05/14 11:11:31;;;;;;;4.00;2.77;;;20.20;39.30;;;;;;5205762;28;20446;-46
2023/05/14 11:14:02;;;;;;;2.93;2.60;;;20.10;39.80;;;;;;5203630;28;20430;-48
2023/05/14 11:16:33;;;;;;;2.83;2.67;;;20.00;39.50;;;;;;5202411;28;20219;-45
2023/05/14 11:19:04;;;;;;;3.30;2.97;;;19.90;40.00;;;;;;5201219;28;20434;-46
2023/05/14 11:21:34;;;;;;;4.07;3.20;;;20.00;40.10;;;;;;5202541;28;20239;-46
2023/05/14 11:24:06;;;;;;;3.80;3.30;;;20.00;40.10;;;;;;5221314;28;20466;-47
2023/05/14 11:26:36;;;;;;;3.60;2.57;;;20.10;40.00;;;;;;5219460;28;20204;-45
2023/05/14 11:29:07;;;;;;;6.17;2.70;;;20.20;39.90;;;;;;5206612;28;20430;-45
2023/05/14 11:31:39;;;;;;;5.40;3.47;;;20.20;39.80;;;;;;5201167;28;20262;-46
2023/05/14 11:34:09;;;;;;;5.90;3.60;;;20.30;40.20;;;;;;5205311;28;20275;-47
2023/05/14 11:36:41;;;;;;;5.13;2.90;;;20.50;39.50;;;;;;5204296;28;20988;-45
2023/05/14 11:39:17;;;;;;;4.43;2.57;;;20.50;39.60;;;;;;5202083;28;20183;-45
2023/05/14 11:41:48;;;;;;;5.70;3.37;;;20.60;40.20;;;;;;5204716;28;20458;-46
2023/05/14 11:44:19;;;;;;;7.63;3.17;;;20.70;40.00;;;;;;5206882;28;20478;-45
2023/05/14 11:46:54;;;;;;;7.50;2.97;;;20.80;40.20;;;;;;5203123;28;20287;-47
2023/05/14 11:49:27;;;;;;;2.93;2.70;;;20.70;40.40;;;;;;5203945;28;20456;-46
2023/05/14 11:51:59;;;;;;;3.70;3.30;;;20.80;40.90;;;;;;5203483;28;20583;-47
2023/05/14 11:54:32;;;;;;;3.10;2.90;;;20.80;40.30;;;;;;5204378;28;20449;-46
2023/05/14 11:57:11;;;;;;;3.47;2.93;;;20.80;40.50;;;;;;5205441;28;20462;-47
2023/05/14 11:59:42;;;;;;;7.40;3.33;;;20.70;40.40;;;;;;5204170;28;20426;-46
2023/05/14 12:02:15;;;;;;;7.23;3.70;;;20.70;40.20;;;;;;5206417;28;20971;-46
2023/05/14 12:04:52;;;;;;;3.00;2.90;;;20.60;40.30;;;;;;5221036;28;20457;-45
2023/05/14 12:07:27;;;;;;;3.33;3.13;;;20.50;40.60;;;;;;5202255;28;21251;-45
2023/05/14 12:10:02;;;;;;;2.70;2.60;;;20.40;40.50;;;;;;5203482;28;20843;-46
2023/05/14 12:12:36;;;;;;;5.50;3.23;;;20.30;40.50;;;;;;5213621;28;20585;-47
2023/05/14 12:15:12;;;;;;;3.17;2.97;;;20.30;40.80;;;;;;5201127;28;20443;-46
2023/05/14 12:17:49;;;;;;;3.13;2.93;;;20.30;40.90;;;;;;5216312;28;20809;-47
2023/05/14 12:20:20;;;;;;;4.87;3.00;;;20.50;40.90;;;;;;5204115;28;20513;-47
2023/05/14 12:22:50;;;;;;;4.67;3.40;;;20.70;41.20;;;;;;5203225;28;20974;-47
2023/05/14 12:25:21;;;;;;;3.73;3.00;;;20.80;40.60;;;;;;5203516;28;20267;-46
2023/05/14 12:27:51;;;;;;;3.63;3.43;;;20.90;40.80;;;;;;5200823;28;20210;-47
2023/05/14 12:30:22;;;;;;;3.03;2.83;;;21.00;41.10;;;;;;5204886;28;20604;-47
2023/05/14 12:32:53;;;;;;;3.10;2.77;;;21.10;40.90;;;;;;5200455;28;20192;-47
2023/05/14 12:35:23;;;;;;;6.77;3.37;;;21.20;40.80;;;;;;5204381;28;20188;-48
2023/05/14 12:37:54;;;;;;;3.27;3.07;;;21.50;40.80;;;;;;5200705;28;20180;-48
2023/05/14 12:40:25;;;;;;;4.90;3.23;;;21.60;39.60;;;;;;5201986;28;20180;-47
2023/05/14 12:42:55;;;;;;;3.73;3.43;;;21.50;39.30;;;;;;5203687;28;20175;-48
2023/05/14 12:45:26;;;;;;;5.23;3.20;;;21.30;39.20;;;;;;5204471;28;20322;-48
2023/05/14 12:47:56;;;;;;;3.07;2.87;;;21.20;38.70;;;;;;5198071;28;20210;-48
2023/05/14 12:50:28;;;;;;;3.20;2.90;;;21.00;38.70;;;;;;5201869;28;20197;-46
2023/05/14 12:52:58;;;;;;;3.63;3.00;;;21.00;38.20;;;;;;5205544;28;20175;-47
2023/05/14 12:55:29;;;;;;;2.50;2.40;;;20.90;38.00;;;;;;5201162;28;20465;-47
2023/05/14 12:58:00;;;;;;;4.90;3.00;;;20.80;37.40;;;;;;5204480;28;20186;-47
2023/05/14 13:00:30;;;;;;;6.10;3.03;;;20.80;38.00;;;;;;5199802;28;20270;-47
2023/05/14 13:03:01;;;;;;;8.83;3.30;;;20.90;37.80;;;;;;5199927;28;20184;-46
2023/05/14 13:05:32;;;;;;;2.70;2.50;;;21.00;37.70;;;;;;5203578;28;20765;-48
2023/05/14 13:08:03;;;;;;;3.53;3.10;;;21.00;37.10;;;;;;5217419;28;20282;-46